createdAt,value
2018-06-25T00:00:08.841Z,13.90
2018-06-25T00:02:37.596Z,13.90
2018-06-25T00:05:06.430Z,14.00
2018-06-25T00:07:35.209Z,14.00
2018-06-25T00:10:04.116Z,14.00
2018-06-25T00:12:32.898Z,14.00
2018-06-25T00:15:01.676Z,14.00
2018-06-25T00:17:30.454Z,14.00
2018-06-25T00:19:59.196Z,14.00
2018-06-25T00:22:27.985Z,14.10
2018-06-25T00:24:56.805Z,14.10
2018-06-25T00:27:25.602Z,14.10
2018-06-25T00:29:54.441Z,14.10
2018-06-25T00:32:23.250Z,14.10
2018-06-25T00:34:52.254Z,14.10
2018-06-25T00:37:21.054Z,14.10
2018-06-25T00:39:49.870Z,14.20
2018-06-25T00:42:18.650Z,14.20
2018-06-25T00:44:47.430Z,14.20
2018-06-25T00:47:16.198Z,14.20
2018-06-25T00:49:45.027Z,14.20
2018-06-25T00:52:13.802Z,14.20
2018-06-25T00:54:42.610Z,14.20
2018-06-25T00:57:11.402Z,14.20
2018-06-25T00:59:55.294Z,14.30
2018-06-25T01:02:24.474Z,14.30
2018-06-25T01:04:53.272Z,14.30
2018-06-25T01:07:22.092Z,14.40
2018-06-25T01:09:50.876Z,14.40
2018-06-25T01:12:19.662Z,14.40
2018-06-25T01:14:48.451Z,14.50
2018-06-25T01:17:17.283Z,14.50
2018-06-25T01:19:46.050Z,14.50
2018-06-25T01:22:14.831Z,14.50
2018-06-25T01:24:43.636Z,14.60
2018-06-25T01:27:12.394Z,14.60
2018-06-25T01:29:42.030Z,14.60
2018-06-25T01:32:10.810Z,14.70
2018-06-25T01:34:40.482Z,14.70
2018-06-25T01:37:09.262Z,14.80
2018-06-25T01:39:38.082Z,14.80
2018-06-25T01:42:06.926Z,14.80
2018-06-25T01:44:35.733Z,14.90
2018-06-25T01:47:04.525Z,14.90
2018-06-25T01:49:33.281Z,14.90
2018-06-25T01:52:02.087Z,14.90
2018-06-25T01:54:30.862Z,14.90
2018-06-25T01:56:59.770Z,14.90
2018-06-25T01:59:28.594Z,15.00
2018-06-25T02:01:57.354Z,15.00
2018-06-25T02:04:26.132Z,15.00
2018-06-25T02:06:54.946Z,15.10
2018-06-25T02:09:23.825Z,15.10
2018-06-25T02:11:52.655Z,15.10
2018-06-25T02:14:21.424Z,15.10
2018-06-25T02:16:50.205Z,15.10
2018-06-25T02:19:18.994Z,15.20
2018-06-25T02:21:47.765Z,15.20
2018-06-25T02:24:16.542Z,15.20
2018-06-25T02:26:45.323Z,15.20
2018-06-25T02:29:14.147Z,15.20
2018-06-25T02:31:42.903Z,15.30
2018-06-25T02:34:11.691Z,15.30
2018-06-25T02:36:40.531Z,15.30
2018-06-25T02:39:11.183Z,15.20
2018-06-25T02:41:39.974Z,15.30
2018-06-25T02:44:09.381Z,15.30
2018-06-25T02:46:38.507Z,15.30
2018-06-25T02:49:07.326Z,15.40
2018-06-25T02:51:36.142Z,15.40
2018-06-25T02:54:05.002Z,15.40
2018-06-25T02:56:33.783Z,15.40
2018-06-25T02:59:02.590Z,15.40
2018-06-25T03:01:31.366Z,15.40
2018-06-25T03:04:00.158Z,15.40
2018-06-25T03:06:28.950Z,15.40
2018-06-25T03:08:57.706Z,15.40
2018-06-25T03:11:26.510Z,15.40
2018-06-25T03:14:01.758Z,15.40
2018-06-25T03:16:30.551Z,15.40
2018-06-25T03:18:59.315Z,15.30
2018-06-25T03:21:28.302Z,15.30
2018-06-25T03:23:57.094Z,15.30
2018-06-25T03:26:25.883Z,15.30
2018-06-25T03:29:01.066Z,15.30
2018-06-25T03:31:29.850Z,15.30
2018-06-25T03:33:58.613Z,15.30
2018-06-25T03:36:27.418Z,15.30
2018-06-25T03:38:56.194Z,15.30
2018-06-25T03:41:24.953Z,15.30
2018-06-25T03:43:53.702Z,15.40
2018-06-25T03:46:22.546Z,15.40
2018-06-25T03:48:51.332Z,15.40
2018-06-25T03:51:20.098Z,15.40
2018-06-25T03:53:48.849Z,15.40
2018-06-25T03:56:17.622Z,15.40
2018-06-25T03:58:46.393Z,15.40
2018-06-25T04:01:15.179Z,15.30
2018-06-25T04:03:43.930Z,15.40
2018-06-25T04:06:12.708Z,15.40
2018-06-25T04:08:41.482Z,15.40
2018-06-25T04:11:10.239Z,15.40
2018-06-25T04:13:39.190Z,15.40
2018-06-25T04:16:08.263Z,15.40
2018-06-25T04:18:37.078Z,15.40
2018-06-25T04:21:06.009Z,15.40
2018-06-25T04:23:34.806Z,15.40
2018-06-25T04:26:03.634Z,15.40
2018-06-25T04:28:32.425Z,15.40
2018-06-25T04:31:01.194Z,15.40
2018-06-25T04:33:29.966Z,15.40
2018-06-25T04:35:58.764Z,15.30
2018-06-25T04:38:27.558Z,15.30
2018-06-25T04:40:56.352Z,15.20
2018-06-25T04:43:25.153Z,15.20
2018-06-25T04:45:53.926Z,15.20
2018-06-25T04:48:22.707Z,15.20
2018-06-25T04:50:51.447Z,15.30
2018-06-25T04:53:20.250Z,15.30
2018-06-25T04:55:48.976Z,15.40
2018-06-25T04:58:17.783Z,15.40
2018-06-25T05:00:46.596Z,15.40
2018-06-25T05:03:15.384Z,15.40
2018-06-25T05:05:44.162Z,15.40
2018-06-25T05:08:12.926Z,15.40
2018-06-25T05:10:41.730Z,15.50
2018-06-25T05:13:10.498Z,15.60
2018-06-25T05:15:39.365Z,15.60
2018-06-25T05:18:08.222Z,15.70
2018-06-25T05:20:37.117Z,15.70
2018-06-25T05:23:06.014Z,15.80
2018-06-25T05:25:34.807Z,15.90
2018-06-25T05:28:03.592Z,16.10
2018-06-25T05:30:32.372Z,16.10
2018-06-25T05:33:01.165Z,16.20
2018-06-25T05:35:29.964Z,16.40
2018-06-25T05:37:58.730Z,16.40
2018-06-25T05:40:27.540Z,16.50
2018-06-25T05:42:56.345Z,16.60
2018-06-25T05:45:25.133Z,16.80
2018-06-25T05:47:54.000Z,17.00
2018-06-25T05:50:22.758Z,17.20
2018-06-25T05:52:51.553Z,17.60
2018-06-25T05:55:20.346Z,17.90
2018-06-25T05:57:49.166Z,17.90
2018-06-25T06:00:17.954Z,18.00
2018-06-25T06:02:46.838Z,18.10
2018-06-25T06:05:15.634Z,18.00
2018-06-25T06:07:44.418Z,17.90
2018-06-25T06:10:13.275Z,17.60
2018-06-25T06:12:42.242Z,17.60
2018-06-25T06:15:11.082Z,17.70
2018-06-25T06:17:39.898Z,17.90
2018-06-25T06:20:08.778Z,17.80
2018-06-25T06:22:37.561Z,17.90
2018-06-25T06:25:06.414Z,17.90
2018-06-25T06:27:35.226Z,17.80
2018-06-25T06:30:04.192Z,17.90
2018-06-25T06:32:32.969Z,17.80
2018-06-25T06:35:01.762Z,17.80
2018-06-25T06:37:30.602Z,17.80
2018-06-25T06:39:59.443Z,17.80
2018-06-25T06:42:28.270Z,17.90
2018-06-25T06:44:57.066Z,17.90
2018-06-25T06:47:25.870Z,17.90
2018-06-25T06:49:54.670Z,17.80
2018-06-25T06:52:23.452Z,17.80
2018-06-25T06:54:52.222Z,17.70
2018-06-25T06:57:21.014Z,17.70
2018-06-25T06:59:49.828Z,17.70
2018-06-25T07:02:18.576Z,17.80
2018-06-25T07:04:47.410Z,17.70
2018-06-25T07:07:16.219Z,17.90
2018-06-25T07:09:44.989Z,17.80
2018-06-25T07:12:13.815Z,17.80
2018-06-25T07:14:42.610Z,17.70
2018-06-25T07:17:11.446Z,17.80
2018-06-25T07:19:40.266Z,17.90
2018-06-25T07:22:09.110Z,17.90
2018-06-25T07:24:37.896Z,17.80
2018-06-25T07:29:35.075Z,18.00
2018-06-25T07:32:03.862Z,18.20
2018-06-25T07:34:32.650Z,18.20
2018-06-25T07:37:01.418Z,18.30
2018-06-25T07:39:30.182Z,18.50
2018-06-25T07:41:59.010Z,18.50
2018-06-25T07:44:27.780Z,18.40
2018-06-25T07:46:56.573Z,18.40
2018-06-25T07:49:25.378Z,18.30
2018-06-25T07:51:54.201Z,18.10
2018-06-25T07:54:22.982Z,18.00
2018-06-25T07:56:51.789Z,18.00
2018-06-25T07:59:20.552Z,18.20
2018-06-25T08:01:49.377Z,18.10
2018-06-25T08:04:18.168Z,18.20
2018-06-25T08:06:46.962Z,18.20
2018-06-25T08:09:15.843Z,18.20
2018-06-25T08:11:44.636Z,18.20
2018-06-25T08:14:13.414Z,18.20
2018-06-25T08:16:42.256Z,17.40
2018-06-25T08:19:11.141Z,18.30
2018-06-25T08:21:39.960Z,18.20
2018-06-25T08:24:08.832Z,18.40
2018-06-25T08:26:37.637Z,18.60
2018-06-25T08:29:06.414Z,18.60
2018-06-25T08:31:35.238Z,18.50
2018-06-25T08:34:04.092Z,18.60
2018-06-25T08:36:32.871Z,18.40
2018-06-25T08:39:01.722Z,18.30
2018-06-25T08:41:30.529Z,18.30
2018-06-25T08:43:59.306Z,18.30
2018-06-25T08:46:28.121Z,18.30
2018-06-25T08:48:56.919Z,18.10
2018-06-25T08:51:25.719Z,18.20
2018-06-25T08:53:54.509Z,18.20
2018-06-25T08:56:23.346Z,18.50
2018-06-25T08:58:52.130Z,18.40
2018-06-25T09:01:21.022Z,18.30
2018-06-25T09:03:49.822Z,18.30
2018-06-25T09:06:18.644Z,18.30
2018-06-25T09:08:47.419Z,18.20
2018-06-25T09:11:16.206Z,18.20
2018-06-25T09:13:45.090Z,18.70
2018-06-25T09:16:13.930Z,19.10
2018-06-25T09:18:43.227Z,19.40
2018-06-25T09:23:40.434Z,19.60
2018-06-25T09:26:09.349Z,19.40
2018-06-25T09:28:38.170Z,19.40
2018-06-25T09:31:07.186Z,19.30
2018-06-25T09:33:36.030Z,19.50
2018-06-25T09:36:04.994Z,19.40
2018-06-25T09:38:33.894Z,19.80
2018-06-25T09:41:02.866Z,20.00
2018-06-25T09:43:31.765Z,20.30
2018-06-25T09:46:00.670Z,20.50
2018-06-25T09:48:29.514Z,20.30
2018-06-25T09:50:58.507Z,20.20
2018-06-25T09:53:27.660Z,20.10
2018-06-25T09:55:56.524Z,20.00
2018-06-25T09:58:25.367Z,20.00
2018-06-25T10:00:59.346Z,20.00
2018-06-25T10:03:28.223Z,20.20
2018-06-25T10:05:57.083Z,20.50
2018-06-25T10:08:25.913Z,20.60
2018-06-25T10:10:54.806Z,20.90
2018-06-25T10:13:23.691Z,21.40
2018-06-25T10:15:53.049Z,21.90
2018-06-25T10:18:21.863Z,22.30
2018-06-25T10:20:50.736Z,22.40
2018-06-25T10:23:19.636Z,22.10
2018-06-25T10:25:48.536Z,21.60
2018-06-25T10:28:17.388Z,21.40
2018-06-25T10:30:46.301Z,21.20
2018-06-25T10:33:15.091Z,20.60
2018-06-25T10:35:43.979Z,20.40
2018-06-25T10:38:12.778Z,20.20
2018-06-25T10:40:41.607Z,20.20
2018-06-25T10:43:10.448Z,20.20
2018-06-25T10:45:39.318Z,20.30
2018-06-25T10:48:08.211Z,20.40
2018-06-25T10:50:37.319Z,20.40
2018-06-25T10:53:06.215Z,20.30
2018-06-25T10:55:35.069Z,20.30
2018-06-25T10:58:04.014Z,20.30
2018-06-25T11:00:32.827Z,20.50
2018-06-25T11:03:01.716Z,20.70
2018-06-25T11:07:59.051Z,21.40
2018-06-25T11:10:27.999Z,21.80
2018-06-25T11:12:58.642Z,21.90
2018-06-25T11:15:27.418Z,22.20
2018-06-25T11:17:56.273Z,22.40
2018-06-25T11:20:25.070Z,22.50
2018-06-25T11:22:53.913Z,22.60
2018-06-25T11:25:22.765Z,22.50
2018-06-25T11:27:51.612Z,22.60
2018-06-25T11:30:20.369Z,22.90
2018-06-25T11:32:49.163Z,23.10
2018-06-25T11:35:17.973Z,23.20
2018-06-25T11:37:46.775Z,23.20
2018-06-25T11:40:15.577Z,23.20
2018-06-25T11:47:41.322Z,22.20
2018-06-25T11:52:38.627Z,22.40
2018-06-25T11:55:07.438Z,22.80
2018-06-25T11:57:36.328Z,23.00
2018-06-25T12:00:05.688Z,22.80
2018-06-25T12:02:34.602Z,23.00
2018-06-25T12:05:03.398Z,23.10
2018-06-25T12:07:32.189Z,23.20
2018-06-25T12:10:00.974Z,23.30
2018-06-25T12:12:29.852Z,23.50
2018-06-25T12:14:58.674Z,23.90
2018-06-25T12:17:27.576Z,24.20
2018-06-25T12:19:56.394Z,24.60
2018-06-25T12:22:25.138Z,24.60
2018-06-25T12:24:53.934Z,25.00
2018-06-25T12:27:22.718Z,25.30
2018-06-25T12:29:51.490Z,25.90
2018-06-25T12:32:20.342Z,25.70
2018-06-25T12:34:49.110Z,25.40
2018-06-25T12:37:18.058Z,24.90
2018-06-25T12:39:46.854Z,25.00
2018-06-25T12:42:15.688Z,25.30
2018-06-25T12:44:44.479Z,25.40
2018-06-25T12:47:13.323Z,25.20
2018-06-25T12:49:42.149Z,25.30
2018-06-25T12:52:11.001Z,25.60
2018-06-25T12:54:39.785Z,25.70
2018-06-25T12:57:08.668Z,26.00
2018-06-25T12:59:37.505Z,26.10
2018-06-25T13:02:06.326Z,26.00
2018-06-25T13:04:35.174Z,26.30
2018-06-25T13:07:04.047Z,26.20
2018-06-25T13:09:32.916Z,26.60
2018-06-25T13:12:01.711Z,26.80
2018-06-25T13:14:30.572Z,27.10
2018-06-25T13:16:59.371Z,27.10
2018-06-25T13:19:28.157Z,27.00
2018-06-25T13:21:57.002Z,26.80
2018-06-25T13:24:25.817Z,26.70
2018-06-25T13:26:54.630Z,26.40
2018-06-25T13:29:23.413Z,26.50
2018-06-25T13:31:52.210Z,26.50
2018-06-25T13:34:21.010Z,26.20
2018-06-25T13:36:49.793Z,26.40
2018-06-25T13:39:18.622Z,26.20
2018-06-25T13:41:47.431Z,25.80
2018-06-25T13:44:16.290Z,25.40
2018-06-25T13:46:45.151Z,25.90
2018-06-25T13:49:13.938Z,26.90
2018-06-25T13:51:42.754Z,27.30
2018-06-25T13:54:11.602Z,27.30
2018-06-25T13:56:40.459Z,27.20
2018-06-25T13:59:09.274Z,27.50
2018-06-25T14:01:38.078Z,27.60
2018-06-25T14:04:06.882Z,27.60
2018-06-25T14:06:35.695Z,28.30
2018-06-25T14:09:06.138Z,29.20
2018-06-25T14:11:34.958Z,30.00
2018-06-25T14:14:04.018Z,30.90
2018-06-25T14:16:32.924Z,30.80
2018-06-25T14:19:01.663Z,30.70
2018-06-25T14:21:30.566Z,30.50
2018-06-25T14:24:04.607Z,29.50
2018-06-25T14:26:38.538Z,29.80
2018-06-25T14:29:11.520Z,30.00
2018-06-25T14:31:40.327Z,31.10
2018-06-25T14:34:15.171Z,31.00
2018-06-25T14:36:44.027Z,30.80
2018-06-25T14:39:12.982Z,31.30
2018-06-25T14:41:41.799Z,31.90
2018-06-25T14:44:10.594Z,31.80
2018-06-25T14:46:39.374Z,32.00
2018-06-25T14:49:08.178Z,31.20
2018-06-25T14:51:37.006Z,31.20
2018-06-25T14:54:05.821Z,31.10
2018-06-25T14:56:34.619Z,30.60
2018-06-25T14:59:03.410Z,30.10
2018-06-25T15:01:32.245Z,29.40
2018-06-25T15:04:01.070Z,28.90
2018-06-25T15:06:29.879Z,29.30
2018-06-25T15:11:27.049Z,30.00
2018-06-25T15:13:55.887Z,30.00
2018-06-25T15:16:24.685Z,30.60
2018-06-25T15:18:53.482Z,31.90
2018-06-25T15:21:22.406Z,32.70
2018-06-25T15:23:51.210Z,32.30
2018-06-25T15:26:20.028Z,33.00
2018-06-25T15:28:48.925Z,33.70
2018-06-25T15:31:17.811Z,33.60
2018-06-25T15:33:46.719Z,32.70
2018-06-25T15:36:15.929Z,32.60
2018-06-25T15:38:45.424Z,32.20
2018-06-25T15:41:14.301Z,32.90
2018-06-25T15:43:43.098Z,32.80
2018-06-25T15:46:11.891Z,33.40
2018-06-25T15:48:40.698Z,33.00
2018-06-25T15:51:09.710Z,31.50
2018-06-25T15:53:38.497Z,29.30
2018-06-25T15:56:07.297Z,27.70
2018-06-25T15:58:36.071Z,26.60
2018-06-25T16:01:04.795Z,26.10
2018-06-25T16:03:33.598Z,25.30
2018-06-25T16:06:02.388Z,23.90
2018-06-25T16:08:31.159Z,23.30
2018-06-25T16:10:59.920Z,22.60
2018-06-25T16:13:28.733Z,22.50
2018-06-25T16:15:58.595Z,22.30
2018-06-25T16:18:27.391Z,21.90
2018-06-25T16:20:56.222Z,21.50
2018-06-25T16:23:25.014Z,21.00
2018-06-25T16:25:53.791Z,20.60
2018-06-25T16:28:23.679Z,20.70
2018-06-25T16:30:52.502Z,20.80
2018-06-25T16:33:21.312Z,21.30
2018-06-25T16:35:50.170Z,21.10
2018-06-25T16:38:19.010Z,20.90
2018-06-25T16:40:48.120Z,20.60
2018-06-25T16:43:16.975Z,20.10
2018-06-25T16:45:45.759Z,19.80
2018-06-25T16:48:14.538Z,19.70
2018-06-25T16:50:43.373Z,19.50
2018-06-25T16:53:12.946Z,19.40
2018-06-25T16:55:41.708Z,19.40
2018-06-25T16:58:10.495Z,19.30
2018-06-25T17:00:39.286Z,19.30
2018-06-25T17:03:08.075Z,19.40
2018-06-25T17:05:37.106Z,19.50
2018-06-25T17:08:05.915Z,19.60
2018-06-25T17:10:34.750Z,19.80
2018-06-25T17:13:03.554Z,20.10
2018-06-25T17:15:32.304Z,20.50
2018-06-25T17:18:01.152Z,20.90
2018-06-25T17:20:29.958Z,21.50
2018-06-25T17:22:58.770Z,22.40
2018-06-25T17:25:27.551Z,22.80
2018-06-25T17:27:56.395Z,23.40
2018-06-25T17:30:25.229Z,24.00
2018-06-25T17:32:54.039Z,24.40
2018-06-25T17:35:22.864Z,24.50
2018-06-25T17:40:20.110Z,23.60
2018-06-25T17:42:48.953Z,22.80
2018-06-25T17:45:17.771Z,22.10
2018-06-25T17:47:46.567Z,21.40
2018-06-25T17:50:15.382Z,21.30
2018-06-25T17:52:44.174Z,21.10
2018-06-25T17:55:12.928Z,20.80
2018-06-25T17:57:41.728Z,20.50
2018-06-25T18:00:10.551Z,20.20
2018-06-25T18:02:39.415Z,19.90
2018-06-25T18:05:08.196Z,19.60
2018-06-25T18:07:38.530Z,19.30
2018-06-25T18:10:07.772Z,18.90
2018-06-25T18:12:36.634Z,18.70
2018-06-25T18:15:05.976Z,18.50
2018-06-25T18:17:34.826Z,18.40
2018-06-25T18:20:04.479Z,18.20
2018-06-25T18:22:33.348Z,17.90
2018-06-25T18:25:02.145Z,17.70
2018-06-25T18:27:31.040Z,17.70
2018-06-25T18:29:59.815Z,17.50
2018-06-25T18:32:29.285Z,17.50
2018-06-25T18:34:58.107Z,17.30
2018-06-25T18:37:26.951Z,17.00
2018-06-25T18:39:55.750Z,16.80
2018-06-25T18:42:24.802Z,16.60
2018-06-25T18:44:53.902Z,16.50
2018-06-25T18:47:22.865Z,16.50
2018-06-25T18:49:51.679Z,16.50
2018-06-25T18:52:21.356Z,16.40
2018-06-25T18:54:50.248Z,16.40
2018-06-25T18:57:21.124Z,16.40
2018-06-25T18:59:50.274Z,16.40
2018-06-25T19:02:19.147Z,16.40
2018-06-25T19:04:48.008Z,16.40
2018-06-25T19:07:16.807Z,16.40
2018-06-25T19:09:45.633Z,16.40
2018-06-25T19:12:14.447Z,16.40
2018-06-25T19:14:43.270Z,16.40
2018-06-25T19:17:12.095Z,16.30
2018-06-25T19:19:40.946Z,16.30
2018-06-25T19:22:09.739Z,16.20
2018-06-25T19:24:38.587Z,16.20
2018-06-25T19:27:07.411Z,16.10
2018-06-25T19:29:36.351Z,16.20
2018-06-25T19:32:05.202Z,16.10
2018-06-25T19:34:34.047Z,16.10
2018-06-25T19:37:02.850Z,16.00
2018-06-25T19:39:31.663Z,16.00
2018-06-25T19:42:00.476Z,15.90
2018-06-25T19:44:29.283Z,15.90
2018-06-25T19:46:58.097Z,15.90
2018-06-25T19:49:26.918Z,15.80
2018-06-25T19:51:55.705Z,15.80
2018-06-25T19:54:24.630Z,15.80
2018-06-25T19:56:53.424Z,15.80
2018-06-25T19:59:22.263Z,15.80
2018-06-25T20:01:51.110Z,15.80
2018-06-25T20:04:20.086Z,15.80
2018-06-25T20:06:48.907Z,15.80
2018-06-25T20:09:18.906Z,15.70
2018-06-25T20:11:47.722Z,15.70
2018-06-25T20:14:16.590Z,15.60
2018-06-25T20:16:45.512Z,15.50
2018-06-25T20:19:14.296Z,15.50
2018-06-25T20:21:43.262Z,15.40
2018-06-25T20:24:12.070Z,15.40
2018-06-25T20:26:40.882Z,15.30
2018-06-25T20:29:09.751Z,15.20
2018-06-25T20:31:38.580Z,15.20
2018-06-25T20:34:07.562Z,15.20
2018-06-25T20:36:36.328Z,15.20
2018-06-25T20:39:08.323Z,15.10
2018-06-25T20:41:37.177Z,15.10
2018-06-25T20:44:08.056Z,15.00
2018-06-25T20:46:36.919Z,14.90
2018-06-25T20:49:05.826Z,14.90
2018-06-25T20:51:34.602Z,14.90
2018-06-25T20:54:03.490Z,14.90
2018-06-25T20:56:32.339Z,14.90
2018-06-25T20:59:01.175Z,14.80
2018-06-25T21:01:29.978Z,14.70
2018-06-25T21:03:58.747Z,14.60
2018-06-25T21:06:27.602Z,14.60
2018-06-25T21:08:56.418Z,14.50
2018-06-25T21:11:25.256Z,14.50
2018-06-25T21:13:54.096Z,14.50
2018-06-25T21:16:23.005Z,14.50
2018-06-25T21:18:51.813Z,14.50
2018-06-25T21:21:20.622Z,14.60
2018-06-25T21:23:49.434Z,14.60
2018-06-25T21:26:18.219Z,14.60
2018-06-25T21:28:47.022Z,14.50
2018-06-25T21:31:15.878Z,14.50
2018-06-25T21:36:13.050Z,14.50
2018-06-25T21:38:41.835Z,14.40
2018-06-25T21:41:10.610Z,14.40
2018-06-25T21:43:39.419Z,14.30
2018-06-25T21:46:08.246Z,14.30
2018-06-25T21:48:37.042Z,14.30
2018-06-25T21:51:05.882Z,14.30
2018-06-25T21:53:34.780Z,14.30
2018-06-25T21:56:03.642Z,14.30
2018-06-25T21:58:32.476Z,14.30
2018-06-25T22:01:01.318Z,14.40
2018-06-25T22:03:30.098Z,14.40
2018-06-25T22:05:58.863Z,14.40
2018-06-25T22:08:27.647Z,14.40
2018-06-25T22:11:02.828Z,14.40
2018-06-25T22:13:31.661Z,14.40
2018-06-25T22:16:00.458Z,14.40
2018-06-25T22:18:29.259Z,14.40
2018-06-25T22:20:58.119Z,14.40
2018-06-25T22:23:26.945Z,14.40
2018-06-25T22:25:55.807Z,14.40
2018-06-25T22:28:24.602Z,14.50
2018-06-25T22:30:53.394Z,14.50
2018-06-25T22:33:22.180Z,14.40
2018-06-25T22:35:50.962Z,14.50
2018-06-25T22:38:19.742Z,14.50
2018-06-25T22:40:48.520Z,14.50
2018-06-25T22:43:17.298Z,14.50
2018-06-25T22:45:46.099Z,14.50
2018-06-25T22:48:14.875Z,14.50
2018-06-25T22:50:43.722Z,14.60
2018-06-25T22:53:12.601Z,14.60
2018-06-25T22:55:41.431Z,14.60
2018-06-25T22:58:10.206Z,14.60
2018-06-25T23:00:38.974Z,14.60
2018-06-25T23:03:07.782Z,14.60
2018-06-25T23:05:36.563Z,14.60
2018-06-25T23:08:05.375Z,14.60
2018-06-25T23:10:34.167Z,14.70
2018-06-25T23:13:02.991Z,14.70
2018-06-25T23:15:31.755Z,14.80
2018-06-25T23:18:00.518Z,14.80
2018-06-25T23:20:29.363Z,14.80
2018-06-25T23:22:58.623Z,14.80
2018-06-25T23:25:27.425Z,14.90
2018-06-25T23:27:56.218Z,14.90
2018-06-25T23:30:24.954Z,14.90
2018-06-25T23:32:53.706Z,14.90
2018-06-25T23:35:22.486Z,14.90
2018-06-25T23:37:51.243Z,14.90
2018-06-25T23:40:20.054Z,14.90
2018-06-25T23:42:48.825Z,14.90
2018-06-25T23:45:17.614Z,15.00
2018-06-25T23:47:46.383Z,15.00
2018-06-25T23:50:15.159Z,15.00
2018-06-25T23:52:43.934Z,15.00
2018-06-25T23:55:12.730Z,15.00
2018-06-25T23:57:41.537Z,15.00
